createdAt,value
2022-11-15T00:01:13.190Z,99.90
2022-11-15T00:06:18.339Z,99.90
2022-11-15T00:11:23.942Z,99.90
2022-11-15T00:16:29.086Z,99.90
2022-11-15T00:21:33.988Z,99.90
2022-11-15T00:26:39.329Z,99.90
2022-11-15T00:31:45.113Z,99.90
2022-11-15T00:36:51.143Z,99.90
2022-11-15T00:41:56.169Z,99.90
2022-11-15T00:47:01.456Z,99.90
2022-11-15T00:52:06.898Z,99.90
2022-11-15T00:57:12.231Z,31.30
2022-11-15T01:02:17.817Z,99.90
2022-11-15T01:07:23.401Z,97.10
2022-11-15T01:12:28.865Z,99.90
2022-11-15T01:17:34.162Z,37.70
2022-11-15T01:22:39.727Z,1.00
2022-11-15T01:27:45.068Z,99.90
2022-11-15T01:32:50.457Z,99.90
2022-11-15T01:37:55.901Z,99.90
2022-11-15T01:43:00.862Z,99.90
2022-11-15T01:48:06.668Z,1.00
2022-11-15T01:53:11.862Z,1.00
2022-11-15T01:58:16.772Z,1.00
2022-11-15T02:03:24.606Z,1.00
2022-11-15T02:08:29.816Z,99.90
2022-11-15T02:13:35.254Z,99.90
2022-11-15T02:18:43.652Z,99.90
2022-11-15T02:24:10.137Z,99.90
2022-11-15T02:29:21.648Z,99.90
2022-11-15T02:34:47.361Z,1.00
2022-11-15T02:39:55.331Z,1.00
2022-11-15T02:45:03.424Z,1.00
2022-11-15T02:50:14.465Z,99.90
2022-11-15T02:55:34.534Z,99.90
2022-11-15T03:00:43.441Z,99.90
2022-11-15T03:06:12.210Z,99.90
2022-11-15T03:11:20.188Z,99.90
2022-11-15T03:16:32.183Z,92.70
2022-11-15T03:21:39.181Z,98.20
2022-11-15T03:26:47.755Z,99.90
2022-11-15T03:31:55.747Z,99.90
2022-11-15T03:37:00.887Z,99.90
2022-11-15T03:42:11.630Z,1.00
2022-11-15T03:47:19.855Z,55.30
2022-11-15T03:52:25.637Z,1.00
2022-11-15T03:57:31.001Z,47.50
2022-11-15T04:02:38.414Z,99.90
2022-11-15T04:07:43.701Z,99.90
2022-11-15T04:12:48.815Z,99.90
2022-11-15T04:17:56.022Z,99.90
2022-11-15T04:23:20.998Z,99.90
2022-11-15T04:28:26.298Z,99.90
2022-11-15T04:33:31.811Z,99.90
2022-11-15T04:38:38.510Z,99.90
2022-11-15T04:43:43.394Z,99.90
2022-11-15T04:48:48.936Z,99.90
2022-11-15T04:53:54.261Z,99.90
2022-11-15T04:58:59.906Z,99.90
2022-11-15T05:04:21.827Z,99.90
2022-11-15T05:09:27.323Z,99.90
2022-11-15T05:14:32.692Z,99.90
2022-11-15T05:19:37.969Z,99.90
2022-11-15T05:24:43.920Z,99.90
2022-11-15T05:29:49.812Z,99.90
2022-11-15T05:34:54.831Z,99.90
2022-11-15T05:39:59.844Z,99.90
2022-11-15T05:45:07.559Z,99.90
2022-11-15T05:50:19.113Z,99.90
2022-11-15T05:55:24.654Z,99.90
2022-11-15T06:00:31.926Z,99.90
2022-11-15T06:05:37.437Z,99.90
2022-11-15T06:10:43.625Z,99.90
2022-11-15T06:15:48.520Z,99.90
2022-11-15T06:20:53.627Z,99.90
2022-11-15T06:26:00.818Z,99.90
2022-11-15T06:31:09.037Z,99.90
2022-11-15T06:36:18.408Z,99.90
2022-11-15T06:41:24.151Z,99.90
2022-11-15T06:46:29.898Z,99.90
2022-11-15T06:51:34.970Z,99.90
2022-11-15T06:56:40.362Z,99.90
2022-11-15T07:01:45.812Z,99.90
2022-11-15T07:06:51.286Z,99.90
2022-11-15T07:11:56.641Z,99.90
2022-11-15T07:17:01.718Z,99.90
2022-11-15T07:22:06.926Z,99.90
2022-11-15T07:27:12.208Z,99.90
2022-11-15T07:32:17.808Z,99.90
2022-11-15T07:37:23.287Z,99.90
2022-11-15T07:42:46.375Z,99.90
2022-11-15T07:47:52.138Z,99.90
2022-11-15T07:52:58.835Z,99.90
2022-11-15T07:58:06.104Z,99.90
2022-11-15T08:03:13.860Z,99.90
2022-11-15T08:08:19.555Z,65.50
2022-11-15T08:13:24.522Z,26.00
2022-11-15T08:18:31.117Z,4.70
2022-11-15T08:23:36.408Z,1.00
2022-11-15T08:28:41.717Z,1.00
2022-11-15T08:33:47.490Z,1.00
2022-11-15T08:38:52.316Z,1.00
2022-11-15T08:43:58.410Z,1.00
2022-11-15T08:49:03.719Z,1.00
2022-11-15T08:54:08.696Z,99.90
2022-11-15T08:59:13.858Z,99.90
2022-11-15T09:04:19.085Z,99.90
2022-11-15T09:09:24.481Z,99.90
2022-11-15T09:14:29.353Z,99.90
2022-11-15T09:19:34.526Z,99.90
2022-11-15T09:24:40.201Z,99.90
2022-11-15T09:29:45.161Z,99.90
2022-11-15T09:34:50.151Z,99.90
2022-11-15T09:39:55.594Z,99.90
2022-11-15T09:45:18.474Z,99.90
2022-11-15T09:50:48.310Z,99.90
2022-11-15T09:56:04.749Z,99.90
2022-11-15T10:01:10.900Z,99.90
2022-11-15T10:06:19.173Z,99.90
2022-11-15T10:11:38.136Z,99.90
2022-11-15T10:16:54.520Z,99.90
2022-11-15T10:22:05.169Z,99.90
2022-11-15T10:27:18.737Z,99.90
2022-11-15T10:32:24.267Z,99.90
2022-11-15T10:37:32.405Z,99.90
2022-11-15T10:42:38.354Z,99.90
2022-11-15T10:47:43.267Z,99.90
2022-11-15T10:52:49.076Z,1.00
2022-11-15T10:58:01.100Z,1.00
2022-11-15T11:03:09.690Z,1.00
2022-11-15T11:08:19.307Z,1.00
2022-11-15T11:13:26.836Z,1.00
2022-11-15T11:18:54.362Z,1.00
2022-11-15T11:24:14.179Z,1.00
2022-11-15T11:29:34.471Z,1.00
2022-11-15T11:35:10.118Z,1.00
2022-11-15T11:40:19.485Z,1.00
2022-11-15T11:45:51.514Z,1.00
2022-11-15T11:50:59.649Z,1.00
2022-11-15T11:56:07.924Z,1.00
2022-11-15T12:01:28.958Z,1.00
2022-11-15T12:06:58.327Z,1.00
2022-11-15T12:12:41.805Z,1.00
2022-11-15T12:17:48.034Z,1.00
2022-11-15T12:23:08.853Z,1.00
2022-11-15T12:28:22.918Z,1.00
2022-11-15T12:33:48.453Z,99.90
2022-11-15T12:38:58.903Z,99.90
2022-11-15T12:44:05.849Z,99.90
2022-11-15T12:49:29.335Z,1.00
2022-11-15T12:54:40.852Z,1.00
2022-11-15T12:59:59.427Z,1.00
2022-11-15T13:05:23.439Z,1.00
2022-11-15T13:10:33.948Z,1.00
2022-11-15T13:16:00.120Z,1.00
2022-11-15T13:21:10.250Z,1.00
2022-11-15T13:26:19.838Z,99.90
2022-11-15T13:31:30.567Z,99.90
2022-11-15T13:36:36.017Z,99.90
2022-11-15T13:41:52.218Z,99.90
2022-11-15T13:47:04.002Z,99.90
2022-11-15T13:52:12.679Z,99.90
2022-11-15T13:57:29.274Z,99.90
2022-11-15T14:02:37.059Z,99.90
2022-11-15T14:07:44.584Z,99.90
2022-11-15T14:12:54.657Z,99.90
2022-11-15T14:17:59.781Z,99.90
2022-11-15T14:23:07.602Z,99.90
2022-11-15T14:28:27.301Z,99.90
2022-11-15T14:33:40.058Z,1.00
2022-11-15T14:38:45.880Z,99.90
2022-11-15T14:43:51.899Z,99.90
2022-11-15T14:48:56.828Z,99.90
2022-11-15T14:54:02.191Z,99.90
2022-11-15T14:59:07.256Z,99.90
2022-11-15T15:04:12.896Z,99.90
2022-11-15T15:09:18.131Z,99.90
2022-11-15T15:14:24.461Z,1.00
2022-11-15T15:19:29.400Z,1.00
2022-11-15T15:24:34.706Z,99.90
2022-11-15T15:29:40.960Z,1.00
2022-11-15T15:34:46.167Z,1.00
2022-11-15T15:39:56.208Z,1.00
2022-11-15T15:45:01.986Z,1.00
2022-11-15T15:50:25.246Z,1.00
2022-11-15T15:55:30.820Z,1.00
2022-11-15T16:00:36.051Z,1.00
2022-11-15T16:05:41.823Z,1.00
2022-11-15T16:10:47.338Z,1.00
2022-11-15T16:15:54.809Z,1.00
2022-11-15T16:21:01.307Z,1.00
2022-11-15T16:26:06.912Z,1.00
2022-11-15T16:31:14.189Z,1.00
2022-11-15T16:36:28.664Z,1.00
2022-11-15T16:41:32.219Z,1.00
2022-11-15T16:46:37.095Z,1.00
2022-11-15T16:51:44.618Z,1.00
2022-11-15T16:56:49.709Z,1.00
2022-11-15T17:01:54.589Z,1.00
2022-11-15T17:06:59.825Z,1.00
2022-11-15T17:12:05.379Z,1.00
2022-11-15T17:17:11.705Z,1.00
2022-11-15T17:22:16.796Z,1.00
2022-11-15T17:27:22.438Z,1.00
2022-11-15T17:32:27.436Z,1.00
2022-11-15T17:37:32.730Z,1.00
2022-11-15T17:42:37.780Z,1.00
2022-11-15T17:47:42.837Z,1.00
2022-11-15T17:52:47.989Z,1.00
2022-11-15T17:57:52.942Z,1.00
2022-11-15T18:02:58.568Z,1.00
2022-11-15T18:08:03.561Z,4.90
2022-11-15T18:13:11.028Z,1.00
2022-11-15T18:18:17.984Z,29.30
2022-11-15T18:23:22.906Z,2.40
2022-11-15T18:28:33.345Z,1.00
2022-11-15T18:33:39.205Z,11.70
2022-11-15T18:38:44.626Z,1.00
2022-11-15T18:43:50.324Z,99.90
2022-11-15T18:48:57.140Z,99.90
2022-11-15T18:54:03.663Z,81.00
2022-11-15T18:59:09.281Z,31.10
2022-11-15T19:04:18.446Z,1.00
2022-11-15T19:09:25.861Z,1.00
2022-11-15T19:14:31.564Z,1.00
2022-11-15T19:19:37.399Z,1.00
2022-11-15T19:24:42.366Z,1.00
2022-11-15T19:29:47.547Z,1.00
2022-11-15T19:34:52.549Z,18.80
2022-11-15T19:39:57.940Z,99.90
2022-11-15T19:45:02.984Z,99.90
2022-11-15T19:50:08.709Z,17.70
2022-11-15T19:55:13.739Z,9.30
2022-11-15T20:00:19.724Z,1.00
2022-11-15T20:05:25.396Z,1.00
2022-11-15T20:10:30.692Z,69.90
2022-11-15T20:15:35.583Z,99.90
2022-11-15T20:20:40.571Z,99.90
2022-11-15T20:25:46.881Z,99.90
2022-11-15T20:30:58.053Z,99.30
2022-11-15T20:36:14.225Z,99.30
2022-11-15T20:41:19.583Z,1.00
2022-11-15T20:46:25.276Z,95.00
2022-11-15T20:51:30.797Z,99.90
2022-11-15T20:56:37.188Z,99.90
2022-11-15T21:01:42.163Z,99.90
2022-11-15T21:06:49.071Z,99.90
2022-11-15T21:12:12.768Z,99.90
2022-11-15T21:17:18.600Z,99.90
2022-11-15T21:22:26.083Z,48.90
2022-11-15T21:27:32.164Z,97.70
2022-11-15T21:32:37.541Z,99.90
2022-11-15T21:37:43.271Z,99.90
2022-11-15T21:42:48.230Z,90.60
2022-11-15T21:47:53.131Z,99.90
2022-11-15T21:52:58.050Z,99.90
2022-11-15T21:58:03.572Z,99.90
2022-11-15T22:03:08.898Z,37.80
2022-11-15T22:08:14.064Z,29.00
2022-11-15T22:13:21.151Z,3.80
2022-11-15T22:18:26.905Z,24.60
2022-11-15T22:23:33.782Z,60.20
2022-11-15T22:28:39.160Z,1.00
2022-11-15T22:33:44.343Z,1.00
2022-11-15T22:38:49.949Z,2.50
2022-11-15T22:43:55.080Z,14.70
2022-11-15T22:49:03.363Z,20.70
2022-11-15T22:54:08.164Z,1.00
2022-11-15T22:59:13.152Z,1.00
2022-11-15T23:04:18.540Z,1.00
2022-11-15T23:09:24.592Z,1.00
2022-11-15T23:14:29.907Z,1.00
2022-11-15T23:19:35.049Z,35.80
2022-11-15T23:24:40.045Z,42.70
2022-11-15T23:30:02.868Z,4.70
2022-11-15T23:35:09.361Z,4.30
2022-11-15T23:40:14.809Z,5.40
2022-11-15T23:45:20.092Z,99.90
2022-11-15T23:50:25.239Z,99.90
2022-11-15T23:55:30.398Z,99.90
